Terminal Aerodrome Forecast
Issued by NWS

Home | Current Version | Previous Version | Text Only | Print | Product List | Glossary On
Versions: 1 2 3 4 5 6 7 8 9 10 11 12 13
095
FTUS44 KMAF 242326
TAFINK
TAF
KINK 242326Z 2500/2524 14009KT P6SM BKN070 BKN120
      TEMPO 2506/2510 VRB20G30KT 5SM TSRA BKN040CB
     FM251000 11006KT P6SM BKN050 BKN100
      TEMPO 2510/2514 5SM TSRA BKN040CB
     FM251400 03010KT 6SM TSRA BKN020CB=

USA.gov is the U.S. government's official web portal to all federal, state and local government web resources and services.